»·PEaware :: N5954W KGUP-KFLG

N5954W :: KGUP-KFLG

FLIGHT INFORMATION

Flight Status: Arrived
Operator: Privately registered:
United States
More flights under this callsign
Pilot: Joshua M. (19482)
Aircraft: BEECH AIRCRAFT BARON
(BE58)
More flights by this aircraft type
Origin: KGUP Gallup Mun
United States
Destination: KFLG Flagstaff Pulliam
United States
More flights between these airports :: More routes between these airports
Route: GUP V291 INW
File this flight plan on PilotEdge
Remarks: Outdated NAV Default XPlane
Altitude:
(Current/Filed)
10,000ft
Speed:
(Current/Filed)
140kts
Departed: 23-Jul-18 04:57 PM
Arrived: 23-Jul-18 06:13 PM
Distance/Time
Traveled:
143nm/1:16
Distance/Time
To Go:
Arrived

Flight Plot

Page will automatically refresh every two minutes.

Flight plan parsing failed; only flown route is shown


Map Options




Map Legend


Flown Route
Filed Route
Departure Airport
Arrival Airport
Navaid (VOR, NDB)
Fix

Horizontal Profiles

Position Reports

Time Latitude Longitude Heading Altitude Ground
Speed
23-Jul-18 16:43 35.514518 -108.780990 255 6473ft 0kts
23-Jul-18 16:44 35.514518 -108.780990 255 6473ft 0kts
23-Jul-18 16:45 35.514518 -108.780990 255 6473ft 0kts
23-Jul-18 16:46 35.514518 -108.780990 255 6473ft 0kts
23-Jul-18 16:47 35.514513 -108.781005 244 6473ft 1kts
23-Jul-18 16:48 35.513811 -108.781385 252 6473ft 13kts
23-Jul-18 16:49 35.512883 -108.785277 254 6473ft 19kts
23-Jul-18 16:50 35.511766 -108.789978 249 6473ft 21kts
23-Jul-18 16:51 35.510451 -108.795518 255 6473ft 33kts
23-Jul-18 16:52 35.509137 -108.801158 182 6473ft 2kts
23-Jul-18 16:53 35.509132 -108.801157 171 6473ft 0kts
23-Jul-18 16:54 35.509132 -108.801157 171 6473ft 0kts
23-Jul-18 16:55 35.509132 -108.801157 171 6473ft 0kts
23-Jul-18 16:56 35.509132 -108.801157 171 6473ft 0kts
23-Jul-18 16:57 35.508365 -108.800693 70 6473ft 0kts
23-Jul-18 16:58 35.510043 -108.793250 73 6473ft 89kts
23-Jul-18 16:59 35.515578 -108.766062 73 6721ft 124kts
23-Jul-18 17:00 35.521223 -108.734180 73 7190ft 133kts
23-Jul-18 17:01 35.516635 -108.702949 155 7797ft 140kts
23-Jul-18 17:02 35.496077 -108.727120 261 8587ft 122kts
23-Jul-18 17:03 35.490698 -108.764768 262 9226ft 123kts
23-Jul-18 17:04 35.485112 -108.805771 261 9504ft 150kts
23-Jul-18 17:05 35.477960 -108.858231 261 9494ft 167kts
23-Jul-18 17:06 35.471681 -108.913433 263 9492ft 171kts
23-Jul-18 17:07 35.465829 -108.968687 263 9488ft 167kts
23-Jul-18 17:08 35.460303 -109.022390 264 9493ft 170kts
23-Jul-18 17:09 35.451786 -109.074072 254 9492ft 172kts
23-Jul-18 17:10 35.440722 -109.128804 257 9491ft 172kts
23-Jul-18 17:11 35.428772 -109.183307 255 9491ft 172kts
23-Jul-18 17:12 35.418239 -109.229650 254 9508ft 171kts
23-Jul-18 17:13 35.408012 -109.282814 253 9512ft 171kts
23-Jul-18 17:14 35.396898 -109.336358 252 9507ft 171kts
23-Jul-18 17:15 35.384925 -109.390420 252 9510ft 170kts
23-Jul-18 17:16 35.372978 -109.443028 252 9508ft 171kts
23-Jul-18 17:17 35.360853 -109.495426 253 9510ft 171kts
23-Jul-18 17:18 35.349280 -109.548404 252 9506ft 171kts
23-Jul-18 17:19 35.337808 -109.600225 252 9502ft 170kts
23-Jul-18 17:20 35.327131 -109.645957 251 9495ft 170kts
23-Jul-18 17:21 35.317982 -109.688672 253 9490ft 171kts
23-Jul-18 17:22 35.310362 -109.725928 253 9472ft 172kts
23-Jul-18 17:23 35.311718 -109.773319 240 9170ft 188kts
23-Jul-18 17:24 35.280064 -109.820335 228 9142ft 180kts
23-Jul-18 17:25 35.261645 -109.869410 258 9144ft 178kts
23-Jul-18 17:26 35.255321 -109.913361 257 9476ft 159kts
23-Jul-18 17:27 35.247361 -109.950770 257 9486ft 167kts
23-Jul-18 17:28 35.240145 -109.985199 257 9482ft 169kts
23-Jul-18 17:29 35.239633 -110.026349 276 9485ft 169kts
23-Jul-18 17:30 35.241639 -110.067000 272 9483ft 169kts
23-Jul-18 17:31 35.241489 -110.097864 269 9484ft 169kts
23-Jul-18 17:32 35.240061 -110.146707 268 9480ft 170kts
23-Jul-18 17:33 35.238753 -110.177478 267 9483ft 170kts
23-Jul-18 17:34 35.236785 -110.218680 267 9482ft 170kts
23-Jul-18 17:35 35.234370 -110.266097 267 9483ft 170kts
23-Jul-18 17:36 35.231947 -110.310995 267 9482ft 170kts
23-Jul-18 17:37 35.229667 -110.352148 268 9482ft 170kts
23-Jul-18 17:38 35.227416 -110.392622 266 9482ft 170kts
23-Jul-18 17:39 35.225999 -110.417528 268 9481ft 170kts
23-Jul-18 17:40 35.222935 -110.472801 267 9483ft 170kts
23-Jul-18 17:41 35.220787 -110.510894 267 9480ft 170kts
23-Jul-18 17:42 35.219088 -110.540733 266 9481ft 170kts
23-Jul-18 17:43 35.216434 -110.590053 267 9243ft 180kts
23-Jul-18 17:44 35.216183 -110.595272 268 9208ft 180kts
23-Jul-18 17:45 35.211807 -110.680532 266 8556ft 188kts
23-Jul-18 17:46 35.209308 -110.722765 267 8497ft 178kts
23-Jul-18 17:47 35.206893 -110.757651 266 8505ft 174kts
23-Jul-18 17:48 35.204310 -110.796967 266 8503ft 173kts
23-Jul-18 17:49 35.201660 -110.838288 267 8506ft 173kts
23-Jul-18 17:50 35.198723 -110.887062 267 8500ft 172kts
23-Jul-18 17:51 35.196174 -110.928404 267 8505ft 172kts
23-Jul-18 17:52 35.193375 -110.973088 268 8509ft 172kts
23-Jul-18 17:53 35.190759 -111.016710 266 8512ft 172kts
23-Jul-18 17:54 35.188149 -111.058844 266 8514ft 172kts
23-Jul-18 17:55 35.185025 -111.109694 266 8511ft 173kts
23-Jul-18 17:56 35.182269 -111.153456 266 8524ft 173kts
23-Jul-18 17:57 35.178743 -111.209222 266 8559ft 172kts
23-Jul-18 17:58 35.170939 -111.252937 255 8586ft 177kts
23-Jul-18 17:59 35.159318 -111.320912 267 8624ft 180kts
23-Jul-18 18:00 35.158923 -111.382205 266 8648ft 180kts
23-Jul-18 18:01 35.159680 -111.433017 277 8650ft 182kts
23-Jul-18 18:02 35.167730 -111.494081 277 8649ft 183kts
23-Jul-18 18:03 35.175768 -111.554447 277 8641ft 171kts
23-Jul-18 18:04 35.182164 -111.605708 276 8216ft 136kts
23-Jul-18 18:05 35.168785 -111.636327 239 7403ft 108kts
23-Jul-18 18:06 35.147939 -111.661226 216 7168ft 105kts
23-Jul-18 18:07 35.130098 -111.680025 212 7108ft 100kts
23-Jul-18 18:08 35.098603 -111.703154 186 7431ft 144kts
23-Jul-18 18:09 35.102242 -111.670235 39 8071ft 153kts
23-Jul-18 18:10 35.139145 -111.635907 37 8121ft 178kts
23-Jul-18 18:11 35.176859 -111.624529 290 7579ft 157kts
23-Jul-18 18:12 35.161290 -111.650673 204 7347ft 101kts
23-Jul-18 18:13 35.139822 -111.669817 226 7012ft 46kts
23-Jul-18 18:14 35.138927 -111.672498 221 7012ft 2kts
23-Jul-18 18:15 35.138480 -111.673828 286 7012ft 0kts
23-Jul-18 18:16 35.138480 -111.673828 286 7012ft 0kts

Navigation Log

Ident Type
Flight plan parsing failed, navigation log unavailable